Upstream stations:
Downstream station:
SHEF ID: WCOM7 Spring R A - Waco MO
STATION TYPE: Stream Gauge
Regulating: Stage = 19.00, Flow = 17743
PRECIP STAGE RIV-FLOW BAT-LOAD
in ft cfs volt
Ccp-Rev Ccp-Rev Ccp-Rev Ccp-Rev
(US/Central)
04/01 00:00 0.00 3.60 1267 12.83
04/01 01:00 0.00 3.58 1252 12.77
04/01 02:00 0.00 3.60 1267 12.77
04/01 03:00 0.00 3.62 1282 12.71
04/01 04:00 0.00 3.64 1297 12.71
04/01 05:00 0.00 3.62 1282 12.71
04/01 06:00 0.00 3.61 1275 12.65
04/01 07:00 0.00 3.63 1290 12.65
04/01 08:00 0.00 3.63 1290 12.71
04/01 09:00 0.00 3.63 1290 12.95
04/01 10:00 0.00 3.63 1290 13.36
04/01 11:00 0.00 3.64 1297 14.41
04/01 12:00 0.00 3.63 1290 14.18
04/01 13:00 0.00 3.63 1290 14.18
04/01 14:00 0.00 3.61 1275 14.24
04/01 15:00 0.00 3.68 1327 14.12
04/01 16:00 0.00 3.66 1312 14.06
04/01 17:00 0.00 3.64 1297 14.00
04/01 18:00 0.00 3.65 1305 13.77
04/01 19:00 0.00 3.66 1312 13.71
04/01 20:00 0.00 3.59 1260 13.36
04/01 21:00 0.00 3.62 1282 13.07
04/01 22:00 0.00 3.60 1267 12.89
04/01 23:00 ---- ---- ---- ----